Nearby METAR Reports

 

KCPC - Whiteville, North Carolina, USA
Distance from station: NNE 17mi, 28km
Updated: 01/23/2021 12:15pm
Clear
Clear
 Wind from NNW
Wind: NNW 7 mph , 11 km/h
Temperature: 52°F , 11°C
Dew Point: 19°F , -7°C
Humidity: 28%
Barometer: 30.20 inHg , 1022.7 hPa
Clouds: Clear
Visibility: 10 miles , 16 km
2021/01/23 17:15 KCPC 231715Z AUTO 34006KT 10SM CLR 11/M07 A3020 RMK AO2 T01061067
KCRE - North Myrtle Bea, South Carolina, USA
Distance from station: SSE 19mi, 31km
Updated: 01/23/2021 11:53am
Clear
Clear
 Wind from NNW
Wind: NNW 12 mph , 19 km/h
Temperature: 52°F , 11°C
Dew Point: 23°F , -5°C
Humidity: 32%
Barometer: 30.19 inHg , 1022.4 hPa
Clouds: Clear
Visibility: 10 miles , 16 km
2021/01/23 16:53 KCRE 231653Z 34010KT 310V010 10SM CLR 11/M05 A3019 RMK AO1 SLP224 T01111050
 
KHYW - Conway-Horry Cty, South Carolina, USA
Distance from station: SW 22mi, 35km
Updated: 01/23/2021 12:15pm
Clear
Clear
 Wind from N
Wind: N 6 mph , 9 km/h
Temperature: 52°F , 11°C
Dew Point: 21°F , -6°C
Humidity: 30%
Barometer: 30.20 inHg , 1022.7 hPa
Clouds: Clear
Visibility: 10 miles , 16 km
2021/01/23 17:15 KHYW 231715Z AUTO 35005KT 300V020 10SM CLR 11/M06 A3020 RMK AO2
KMAO - Marion, South Carolina, USA
Distance from station: WNW 28mi, 45km
Updated: 01/23/2021 12:15pm
Clear
Clear
 Wind from N
Wind: N 9 mph , 15 km/h, Gust: 20 mph , 31 km/h
Temperature: 52°F , 11°C
Dew Point: 18°F , -8°C
Humidity: 26%
Barometer: 30.22 inHg , 1023.4 hPa
Clouds: Clear
Visibility: 10 miles , 16 km
2021/01/23 17:15 KMAO 231715Z AUTO 36008G17KT 10SM CLR 11/M08 A3022 RMK AO2
 
KMYR - Myrtle Beach, South Carolina, USA
Distance from station: S 28mi, 45km
Updated: 01/23/2021 11:56am
Clear
Clear
 Wind from NNW
Wind: NNW 10 mph , 17 km/h
Temperature: 54°F , 12°C
Dew Point: 21°F , -6°C
Humidity: 28%
Barometer: 30.20 inHg , 1022.7 hPa
Clouds: Clear
Visibility: 10 miles , 16 km
2021/01/23 16:56 KMYR 231656Z 34009KT 10SM CLR 12/M06 A3020 RMK AO2 SLP226 T01171056
KLBT - Lumberton, North Carolina, USA
Distance from station: NNW 39mi, 62km
Updated: 03/28/2019 9:55am
NOT Current

 
2019/03/28 13:55 KLBT 281355Z MKT MSM M M M M A0000 M M RMK TEST
 
KSUT - Southport, North Carolina, USA
Distance from station: E 46mi, 74km
Updated: 01/23/2021 12:15pm
Clear
Clear
 Wind from N
Wind: N 12 mph , 19 km/h
Temperature: 54°F , 12°C
Dew Point: 21°F , -6°C
Humidity: 28%
Barometer: 30.18 inHg , 1022 hPa
Clouds: Clear
Visibility: 10 miles , 16 km
2021/01/23 17:15 KSUT 231715Z AUTO 35010KT 10SM CLR 12/M06 A3018 RMK AO2 T01151064
KFLO - Florence, South Carolina, USA
Distance from station: W 50mi, 81km
Updated: 01/23/2021 11:53am
Clear
Clear
 Wind from N
Wind: N 14 mph , 22 km/h
Temperature: 52°F , 11°C
Dew Point: 18°F , -8°C
Humidity: 26%
Barometer: 30.22 inHg , 1023.4 hPa
Clouds: Clear
Visibility: 10 miles , 16 km
2021/01/23 16:53 KFLO 231653Z 36012KT 10SM CLR 11/M08 A3022 RMK AO2 SLP233 T01111083